createdAt,value
2018-07-30T00:02:19.369Z,21.37
2018-07-30T00:04:47.150Z,19.43
2018-07-30T00:07:14.927Z,19.23
2018-07-30T00:09:42.714Z,19.20
2018-07-30T00:12:10.504Z,19.40
2018-07-30T00:14:38.369Z,20.37
2018-07-30T00:17:06.229Z,18.80
2018-07-30T00:19:34.066Z,19.50
2018-07-30T00:22:01.866Z,19.70
2018-07-30T00:24:29.635Z,20.00
2018-07-30T00:26:57.446Z,20.47
2018-07-30T00:29:25.222Z,19.97
2018-07-30T00:31:52.990Z,20.10
2018-07-30T00:34:20.761Z,20.93
2018-07-30T00:36:48.564Z,20.67
2018-07-30T00:39:16.360Z,20.53
2018-07-30T00:41:44.126Z,21.37
2018-07-30T00:44:11.893Z,19.43
2018-07-30T00:46:39.645Z,21.23
2018-07-30T00:49:07.825Z,20.13
2018-07-30T00:51:35.719Z,19.13
2018-07-30T00:54:03.457Z,19.50
2018-07-30T00:56:31.272Z,20.13
2018-07-30T00:58:59.031Z,18.33
2018-07-30T01:01:26.789Z,19.83
2018-07-30T01:03:54.573Z,19.20
2018-07-30T01:06:22.362Z,19.03
2018-07-30T01:08:50.196Z,19.27
2018-07-30T01:11:17.982Z,19.63
2018-07-30T01:13:45.813Z,19.13
2018-07-30T01:16:13.603Z,22.10
2018-07-30T01:18:41.377Z,18.30
2018-07-30T01:21:09.306Z,18.63
2018-07-30T01:23:37.117Z,20.73
2018-07-30T01:26:10.522Z,22.00
2018-07-30T01:28:38.288Z,22.00
2018-07-30T01:31:06.162Z,20.83
2018-07-30T01:33:33.934Z,21.43
2018-07-30T01:36:01.743Z,22.57
2018-07-30T01:38:29.536Z,25.03
2018-07-30T01:40:57.310Z,22.23
2018-07-30T01:43:25.077Z,23.20
2018-07-30T01:45:52.841Z,25.37
2018-07-30T01:48:20.593Z,25.20
2018-07-30T01:50:48.392Z,32.00
2018-07-30T01:53:16.204Z,30.57
2018-07-30T01:55:44.002Z,27.67
2018-07-30T01:58:11.782Z,31.63
2018-07-30T02:00:39.646Z,28.47
2018-07-30T02:03:07.485Z,31.50
2018-07-30T02:05:35.236Z,30.10
2018-07-30T02:08:03.033Z,31.33
2018-07-30T02:10:30.830Z,28.83
2018-07-30T02:12:58.610Z,29.93
2018-07-30T02:15:26.422Z,26.50
2018-07-30T02:17:54.194Z,23.93
2018-07-30T02:20:22.039Z,25.50
2018-07-30T02:22:49.826Z,29.10
2018-07-30T02:25:17.630Z,22.73
2018-07-30T02:27:45.470Z,23.27
2018-07-30T02:30:13.234Z,24.23
2018-07-30T02:32:41.040Z,23.80
2018-07-30T02:35:09.265Z,24.70
2018-07-30T02:37:37.187Z,26.50
2018-07-30T02:40:05.737Z,26.83
2018-07-30T02:42:33.494Z,28.33
2018-07-30T02:45:01.550Z,33.10
2018-07-30T02:47:29.381Z,27.83
2018-07-30T02:49:57.173Z,23.37
2018-07-30T02:52:25.046Z,30.33
2018-07-30T02:54:52.874Z,23.47
2018-07-30T02:57:20.653Z,26.13
2018-07-30T02:59:48.461Z,20.47
2018-07-30T03:02:16.402Z,21.17
2018-07-30T03:04:44.201Z,19.90
2018-07-30T03:07:12.001Z,19.07
2018-07-30T03:09:39.765Z,19.13
2018-07-30T03:12:07.618Z,20.30
2018-07-30T03:14:35.396Z,20.73
2018-07-30T03:17:03.197Z,16.53
2018-07-30T03:19:31.033Z,15.07
2018-07-30T03:21:58.798Z,15.87
2018-07-30T03:24:26.616Z,16.80
2018-07-30T03:26:54.390Z,16.77
2018-07-30T03:29:22.197Z,15.23
2018-07-30T03:31:50.002Z,17.40
2018-07-30T03:34:17.800Z,20.40
2018-07-30T03:36:45.605Z,21.77
2018-07-30T03:39:13.383Z,28.70
2018-07-30T03:41:41.153Z,25.70
2018-07-30T03:44:08.929Z,22.97
2018-07-30T03:46:36.746Z,25.53
2018-07-30T03:49:04.894Z,24.87
2018-07-30T03:51:32.726Z,24.00
2018-07-30T03:54:00.509Z,23.93
2018-07-30T03:56:28.283Z,26.13
2018-07-30T03:58:56.059Z,26.73
2018-07-30T04:01:23.862Z,24.50
2018-07-30T04:03:51.665Z,24.77
2018-07-30T04:06:19.465Z,25.37
2018-07-30T04:08:47.244Z,25.73
2018-07-30T04:11:15.026Z,25.60
2018-07-30T04:13:42.823Z,25.97
2018-07-30T04:16:10.732Z,27.90
2018-07-30T04:18:38.546Z,32.40
2018-07-30T04:21:06.343Z,32.20
2018-07-30T04:23:34.109Z,31.57
2018-07-30T04:26:01.914Z,32.83
2018-07-30T04:28:29.709Z,28.33
2018-07-30T04:30:57.481Z,29.00
2018-07-30T04:33:25.293Z,29.20
2018-07-30T04:35:53.070Z,29.50
2018-07-30T04:38:20.864Z,29.37
2018-07-30T04:40:48.670Z,29.80
2018-07-30T04:43:16.438Z,29.97
2018-07-30T04:45:44.203Z,28.67
2018-07-30T04:48:11.972Z,26.93
2018-07-30T04:50:39.774Z,29.80
2018-07-30T04:53:07.554Z,25.00
2018-07-30T04:55:35.329Z,25.13
2018-07-30T04:58:03.117Z,21.97
2018-07-30T05:00:30.969Z,19.63
2018-07-30T05:03:00.302Z,19.63
2018-07-30T05:05:28.051Z,17.27
2018-07-30T05:07:55.819Z,17.40
2018-07-30T05:10:23.638Z,17.27
2018-07-30T05:12:51.406Z,16.40
2018-07-30T05:15:19.174Z,15.97
2018-07-30T05:17:46.945Z,17.10
2018-07-30T05:20:14.728Z,16.43
2018-07-30T05:22:42.544Z,15.80
2018-07-30T05:25:10.355Z,15.87
2018-07-30T05:27:38.146Z,13.97
2018-07-30T05:30:06.121Z,15.37
2018-07-30T05:32:33.928Z,14.20
2018-07-30T05:35:01.760Z,13.97
2018-07-30T05:37:29.573Z,13.90
2018-07-30T05:39:57.349Z,14.53
2018-07-30T05:42:25.141Z,13.90
2018-07-30T05:44:52.920Z,14.07
2018-07-30T05:47:20.732Z,13.97
2018-07-30T05:49:48.554Z,16.00
2018-07-30T05:52:16.334Z,15.00
2018-07-30T05:54:44.138Z,16.00
2018-07-30T05:57:11.922Z,16.73
2018-07-30T05:59:39.715Z,16.47
2018-07-30T06:02:07.513Z,18.33
2018-07-30T06:04:35.368Z,18.37
2018-07-30T06:07:03.221Z,19.30
2018-07-30T06:09:31.029Z,21.23
2018-07-30T06:11:58.836Z,19.83
2018-07-30T06:14:26.585Z,19.93
2018-07-30T06:16:54.388Z,19.37
2018-07-30T06:19:22.197Z,22.47
2018-07-30T06:21:49.977Z,22.60
2018-07-30T06:24:17.729Z,21.40
2018-07-30T06:26:45.490Z,23.13
2018-07-30T06:29:13.312Z,23.83
2018-07-30T06:31:41.112Z,21.50
2018-07-30T06:34:08.886Z,20.70
2018-07-30T06:36:36.693Z,22.03
2018-07-30T06:39:07.040Z,23.03
2018-07-30T06:41:34.930Z,25.33
2018-07-30T06:44:02.809Z,27.83
2018-07-30T06:46:30.650Z,25.90
2018-07-30T06:48:58.425Z,27.17
2018-07-30T06:51:26.264Z,25.97
2018-07-30T06:53:54.104Z,28.00
2018-07-30T06:56:21.857Z,26.77
2018-07-30T06:58:49.638Z,25.30
2018-07-30T07:01:17.443Z,24.40
2018-07-30T07:03:45.223Z,24.70
2018-07-30T07:06:12.995Z,25.37
2018-07-30T07:08:40.763Z,25.97
2018-07-30T07:11:08.600Z,27.80
2018-07-30T07:13:36.395Z,27.03
2018-07-30T07:16:04.332Z,27.90
2018-07-30T07:18:32.153Z,28.03
2018-07-30T07:20:59.974Z,26.73
2018-07-30T07:23:27.721Z,26.67
2018-07-30T07:25:55.579Z,28.07
2018-07-30T07:28:23.365Z,26.50
2018-07-30T07:30:51.220Z,26.00
2018-07-30T07:33:19.021Z,27.23
2018-07-30T07:35:46.787Z,26.70
2018-07-30T07:38:14.613Z,24.70
2018-07-30T07:40:42.407Z,25.70
2018-07-30T07:43:10.240Z,26.10
2018-07-30T07:45:38.030Z,26.10
2018-07-30T07:48:05.912Z,26.73
2018-07-30T07:50:33.911Z,24.97
2018-07-30T07:53:01.635Z,25.87
2018-07-30T07:55:29.425Z,27.33
2018-07-30T07:57:57.268Z,27.37
2018-07-30T08:00:25.033Z,25.20
2018-07-30T08:02:52.853Z,26.17
2018-07-30T08:05:20.678Z,26.77
2018-07-30T08:07:48.503Z,24.77
2018-07-30T08:10:16.358Z,25.13
2018-07-30T08:12:44.174Z,23.97
2018-07-30T08:15:11.981Z,21.07
2018-07-30T08:17:39.810Z,22.73
2018-07-30T08:20:08.547Z,22.80
2018-07-30T08:22:36.713Z,23.47
2018-07-30T08:25:07.067Z,23.70
2018-07-30T08:27:34.893Z,24.70
2018-07-30T08:30:02.732Z,22.90
2018-07-30T08:32:30.599Z,28.50
2018-07-30T08:34:58.419Z,24.10
2018-07-30T08:37:26.340Z,24.87
2018-07-30T08:39:54.151Z,22.53
2018-07-30T08:42:21.994Z,24.23
2018-07-30T08:44:49.827Z,24.33
2018-07-30T08:47:17.634Z,22.57
2018-07-30T08:49:45.461Z,22.23
2018-07-30T08:52:13.227Z,21.60
2018-07-30T08:54:41.029Z,22.90
2018-07-30T08:57:08.839Z,19.97
2018-07-30T08:59:36.649Z,21.83
2018-07-30T09:02:04.486Z,21.23
2018-07-30T09:04:32.301Z,21.10
2018-07-30T09:07:00.119Z,18.83
2018-07-30T09:09:27.974Z,20.33
2018-07-30T09:11:55.829Z,20.47
2018-07-30T09:14:23.622Z,21.20
2018-07-30T09:16:51.664Z,19.57
2018-07-30T09:19:19.538Z,18.80
2018-07-30T09:21:47.373Z,18.80
2018-07-30T09:24:15.134Z,20.67
2018-07-30T09:26:42.954Z,18.73
2018-07-30T09:29:10.725Z,17.60
2018-07-30T09:31:38.510Z,15.80
2018-07-30T09:34:06.465Z,17.67
2018-07-30T09:36:34.302Z,16.90
2018-07-30T09:39:02.095Z,16.07
2018-07-30T09:41:29.868Z,16.07
2018-07-30T09:43:57.642Z,17.10
2018-07-30T09:46:25.455Z,16.50
2018-07-30T09:48:53.272Z,15.37
2018-07-30T09:51:21.066Z,16.73
2018-07-30T09:53:48.887Z,16.10
2018-07-30T09:56:16.715Z,13.13
2018-07-30T09:58:44.478Z,10.47
2018-07-30T10:01:17.672Z,10.43
2018-07-30T10:03:45.472Z,12.67
2018-07-30T10:06:13.308Z,10.80
2018-07-30T10:08:41.065Z,12.33
2018-07-30T10:11:08.825Z,12.13
2018-07-30T10:13:36.622Z,13.20
2018-07-30T10:16:04.407Z,10.97
2018-07-30T10:18:32.177Z,10.23
2018-07-30T10:21:00.026Z,7.30
2018-07-30T10:23:27.798Z,7.33
2018-07-30T10:25:55.568Z,8.00
2018-07-30T10:28:23.379Z,7.40
2018-07-30T10:30:51.195Z,7.40
2018-07-30T10:33:19.015Z,8.47
2018-07-30T10:35:46.840Z,8.00
2018-07-30T10:38:14.741Z,7.47
2018-07-30T10:40:42.466Z,6.90
2018-07-30T10:43:10.275Z,7.13
2018-07-30T10:45:38.089Z,9.00
2018-07-30T10:48:05.958Z,10.00
2018-07-30T10:50:33.776Z,9.67
2018-07-30T10:53:01.544Z,10.40
2018-07-30T10:55:29.361Z,13.80
2018-07-30T10:57:57.118Z,17.37
2018-07-30T11:00:24.911Z,10.60
2018-07-30T11:02:52.711Z,15.03
2018-07-30T11:05:20.597Z,12.47
2018-07-30T11:07:48.431Z,14.40
2018-07-30T11:10:16.233Z,13.20
2018-07-30T11:12:44.024Z,13.00
2018-07-30T11:15:11.834Z,11.10
2018-07-30T11:17:40.551Z,13.23
2018-07-30T11:20:08.400Z,13.47
2018-07-30T11:22:36.174Z,12.50
2018-07-30T11:25:03.998Z,14.83
2018-07-30T11:27:31.765Z,12.80
2018-07-30T11:29:59.569Z,11.47
2018-07-30T11:32:27.369Z,13.20
2018-07-30T11:34:55.137Z,14.00
2018-07-30T11:37:22.897Z,13.60
2018-07-30T11:39:50.683Z,9.97
2018-07-30T11:42:18.547Z,8.47
2018-07-30T11:44:46.343Z,9.60
2018-07-30T11:47:14.125Z,7.97
2018-07-30T11:49:41.948Z,10.73
2018-07-30T11:52:09.733Z,9.07
2018-07-30T11:54:37.486Z,8.60
2018-07-30T11:57:05.334Z,9.03
2018-07-30T11:59:33.158Z,8.97
2018-07-30T12:02:00.942Z,9.07
2018-07-30T12:04:28.834Z,9.00
2018-07-30T12:06:56.616Z,9.00
2018-07-30T12:09:24.431Z,12.27
2018-07-30T12:11:52.286Z,9.70
2018-07-30T12:14:20.167Z,9.03
2018-07-30T12:16:47.982Z,8.87
2018-07-30T12:19:15.771Z,8.90
2018-07-30T12:21:43.613Z,9.23
2018-07-30T12:24:11.394Z,8.53
2018-07-30T12:26:39.218Z,8.70
2018-07-30T12:29:07.031Z,9.70
2018-07-30T12:31:34.814Z,9.27
2018-07-30T12:34:02.914Z,8.53
2018-07-30T12:36:30.779Z,8.70
2018-07-30T12:38:58.653Z,8.67
2018-07-30T12:41:26.458Z,8.90
2018-07-30T12:43:54.322Z,8.10
2018-07-30T12:46:22.113Z,9.50
2018-07-30T12:48:49.895Z,10.17
2018-07-30T12:51:17.736Z,8.13
2018-07-30T12:53:45.582Z,9.00
2018-07-30T12:56:13.374Z,8.60
2018-07-30T12:58:42.603Z,9.00
2018-07-30T13:01:10.535Z,11.40
2018-07-30T13:03:38.354Z,9.73
2018-07-30T13:06:06.303Z,9.90
2018-07-30T13:08:34.095Z,11.20
2018-07-30T13:11:01.906Z,9.50
2018-07-30T13:13:29.729Z,9.13
2018-07-30T13:15:57.627Z,10.67
2018-07-30T13:18:25.434Z,11.90
2018-07-30T13:20:53.239Z,11.23
2018-07-30T13:23:21.049Z,10.63
2018-07-30T13:25:48.880Z,9.80
2018-07-30T13:28:16.703Z,9.20
2018-07-30T13:30:44.501Z,12.40
2018-07-30T13:33:12.285Z,9.83
2018-07-30T13:35:40.071Z,10.43
2018-07-30T13:38:08.058Z,9.47
2018-07-30T13:40:35.976Z,8.40
2018-07-30T13:43:03.791Z,8.53
2018-07-30T13:45:31.593Z,10.03
2018-07-30T13:47:59.370Z,9.27
2018-07-30T13:50:27.230Z,10.87
2018-07-30T13:52:55.001Z,9.03
2018-07-30T13:55:22.775Z,9.20
2018-07-30T13:57:50.559Z,8.00
2018-07-30T14:00:18.371Z,9.83
2018-07-30T14:02:46.255Z,8.63
2018-07-30T14:05:14.092Z,9.17
2018-07-30T14:07:41.911Z,9.53
2018-07-30T14:10:10.187Z,10.87
2018-07-30T14:12:38.237Z,10.03
2018-07-30T14:15:06.669Z,11.23
2018-07-30T14:17:34.523Z,10.67
2018-07-30T14:20:02.293Z,10.50
2018-07-30T14:22:30.150Z,11.93
2018-07-30T14:24:57.968Z,9.80
2018-07-30T14:27:25.764Z,8.80
2018-07-30T14:29:53.605Z,9.50
2018-07-30T14:32:21.396Z,10.77
2018-07-30T14:34:49.274Z,10.83
2018-07-30T14:37:17.109Z,12.10
2018-07-30T14:39:44.926Z,9.80
2018-07-30T14:42:12.767Z,10.03
2018-07-30T14:44:40.672Z,9.60
2018-07-30T14:47:08.605Z,9.67
2018-07-30T14:49:36.466Z,9.43
2018-07-30T14:52:04.387Z,10.90
2018-07-30T14:54:32.334Z,9.10
2018-07-30T14:57:00.174Z,9.27
2018-07-30T14:59:28.191Z,9.27
2018-07-30T15:01:56.005Z,9.90
2018-07-30T15:04:23.875Z,9.67
2018-07-30T15:06:51.814Z,10.23
2018-07-30T15:09:19.738Z,9.43
2018-07-30T15:11:47.661Z,9.13
2018-07-30T15:14:15.519Z,10.10
2018-07-30T15:16:43.378Z,12.50
2018-07-30T15:19:11.329Z,8.63
2018-07-30T15:21:39.173Z,9.77
2018-07-30T15:24:07.060Z,7.60
2018-07-30T15:26:34.901Z,7.90
2018-07-30T15:29:02.786Z,8.30
2018-07-30T15:31:30.881Z,7.53
2018-07-30T15:33:58.897Z,9.40
2018-07-30T15:36:26.745Z,7.17
2018-07-30T15:38:54.616Z,5.83
2018-07-30T15:41:22.466Z,7.23
2018-07-30T15:43:50.330Z,7.20
2018-07-30T15:46:18.145Z,7.60
2018-07-30T15:48:46.106Z,9.27
2018-07-30T15:51:14.035Z,7.13
2018-07-30T15:53:41.942Z,6.87
2018-07-30T15:56:09.848Z,8.53
2018-07-30T15:58:38.102Z,8.03
2018-07-30T16:01:05.981Z,8.83
2018-07-30T16:03:33.829Z,11.33
2018-07-30T16:06:02.048Z,10.03
2018-07-30T16:08:30.336Z,8.90
2018-07-30T16:10:58.211Z,9.87
2018-07-30T16:13:26.070Z,8.13
2018-07-30T16:15:53.960Z,10.00
2018-07-30T16:18:21.838Z,8.47
2018-07-30T16:20:50.598Z,9.10
2018-07-30T16:23:18.615Z,7.87
2018-07-30T16:25:46.939Z,9.80
2018-07-30T16:28:14.798Z,9.83
2018-07-30T16:30:42.735Z,11.10
2018-07-30T16:33:10.626Z,9.17
2018-07-30T16:35:38.498Z,9.67
2018-07-30T16:38:06.337Z,8.43
2018-07-30T16:40:34.201Z,8.80
2018-07-30T16:43:02.169Z,8.63
2018-07-30T16:45:30.426Z,8.10
2018-07-30T16:47:58.297Z,8.00
2018-07-30T16:50:26.201Z,9.13
2018-07-30T16:52:54.110Z,8.53
2018-07-30T16:55:21.993Z,8.03
2018-07-30T16:57:49.858Z,11.43
2018-07-30T17:00:17.829Z,9.20
2018-07-30T17:02:45.706Z,8.43
2018-07-30T17:05:16.530Z,8.40
2018-07-30T17:07:44.414Z,11.93
2018-07-30T17:10:12.327Z,10.40
2018-07-30T17:12:40.252Z,10.17
2018-07-30T17:15:08.101Z,12.40
2018-07-30T17:17:35.961Z,15.73
2018-07-30T17:20:05.667Z,11.87
2018-07-30T17:22:33.477Z,11.77
2018-07-30T17:25:01.375Z,9.53
2018-07-30T17:27:29.259Z,12.87
2018-07-30T17:29:57.161Z,9.63
2018-07-30T17:32:25.110Z,8.77
2018-07-30T17:34:52.968Z,10.93
2018-07-30T17:37:20.862Z,9.60
2018-07-30T17:39:48.717Z,10.43
2018-07-30T17:42:16.555Z,9.80
2018-07-30T17:44:44.420Z,12.03
2018-07-30T17:47:12.290Z,17.50
2018-07-30T17:49:40.163Z,10.50
2018-07-30T17:52:08.068Z,11.77
2018-07-30T17:54:35.966Z,10.90
2018-07-30T17:57:03.934Z,10.40
2018-07-30T17:59:31.822Z,13.98
2018-07-30T18:01:59.763Z,10.97
2018-07-30T18:04:27.681Z,10.93
2018-07-30T18:06:55.566Z,11.47
2018-07-30T18:09:23.453Z,11.33
2018-07-30T18:11:51.324Z,12.50
2018-07-30T18:14:19.236Z,14.37
2018-07-30T18:16:47.157Z,14.30
2018-07-30T18:19:15.006Z,12.43
2018-07-30T18:21:43.234Z,12.80
2018-07-30T18:24:11.113Z,11.50
2018-07-30T18:26:39.013Z,11.80
2018-07-30T18:29:07.249Z,11.90
2018-07-30T18:31:35.126Z,15.80
2018-07-30T18:34:03.054Z,12.67
2018-07-30T18:36:31.016Z,11.20
2018-07-30T18:38:58.916Z,10.03
2018-07-30T18:41:26.888Z,10.67
2018-07-30T18:43:54.737Z,13.07
2018-07-30T18:46:22.722Z,11.23
2018-07-30T18:48:50.565Z,11.40
2018-07-30T18:51:18.897Z,12.10
2018-07-30T18:53:46.750Z,10.80
2018-07-30T18:56:14.725Z,11.50
2018-07-30T18:58:42.665Z,11.63
2018-07-30T19:01:10.599Z,11.40
2018-07-30T19:03:38.541Z,10.63
2018-07-30T19:06:07.486Z,12.97
2018-07-30T19:08:35.405Z,13.30
2018-07-30T19:11:03.349Z,14.00
2018-07-30T19:13:31.252Z,14.67
2018-07-30T19:15:59.180Z,14.90
2018-07-30T19:18:27.094Z,15.73
2018-07-30T19:20:55.005Z,17.00
2018-07-30T19:23:22.885Z,17.43
2018-07-30T19:25:50.762Z,15.13
2018-07-30T19:28:18.669Z,16.57
2018-07-30T19:30:46.536Z,15.43
2018-07-30T19:33:14.937Z,15.87
2018-07-30T19:35:42.877Z,15.73
2018-07-30T19:38:10.785Z,17.67
2018-07-30T19:40:38.712Z,45.40
2018-07-30T19:43:07.245Z,94.67
2018-07-30T19:45:35.142Z,31.33
2018-07-30T19:48:03.109Z,22.80
2018-07-30T19:50:31.073Z,18.77
2018-07-30T19:52:59.129Z,18.83
2018-07-30T19:55:27.013Z,21.83
2018-07-30T19:57:55.109Z,17.97
2018-07-30T20:00:22.887Z,17.83
2018-07-30T20:02:50.768Z,16.93
2018-07-30T20:05:18.648Z,15.47
2018-07-30T20:07:46.549Z,13.27
2018-07-30T20:10:14.458Z,14.70
2018-07-30T20:12:42.332Z,14.50
2018-07-30T20:15:10.290Z,15.17
2018-07-30T20:17:38.248Z,15.70
2018-07-30T20:20:10.412Z,13.90
2018-07-30T20:22:38.213Z,11.93
2018-07-30T20:25:06.416Z,11.73
2018-07-30T20:27:34.309Z,10.73
2018-07-30T20:30:02.278Z,11.00
2018-07-30T20:32:30.133Z,9.50
2018-07-30T20:34:58.081Z,10.63
2018-07-30T20:37:25.962Z,9.77
2018-07-30T20:39:54.165Z,7.63
2018-07-30T20:42:22.133Z,9.13
2018-07-30T20:44:50.005Z,9.13
2018-07-30T20:47:17.959Z,8.70
2018-07-30T20:49:45.821Z,9.17
2018-07-30T20:52:13.669Z,8.07
2018-07-30T20:54:41.529Z,7.13
2018-07-30T20:57:09.357Z,7.60
2018-07-30T20:59:37.251Z,7.23
2018-07-30T21:02:05.197Z,7.87
2018-07-30T21:04:33.133Z,8.73
2018-07-30T21:07:00.905Z,9.20
2018-07-30T21:09:28.825Z,7.70
2018-07-30T21:11:56.684Z,9.00
2018-07-30T21:14:24.565Z,9.27
2018-07-30T21:16:52.413Z,8.17
2018-07-30T21:19:20.280Z,9.30
2018-07-30T21:21:48.121Z,9.40
2018-07-30T21:24:16.011Z,9.07
2018-07-30T21:26:43.842Z,9.10
2018-07-30T21:29:11.665Z,8.70
2018-07-30T21:31:39.486Z,9.53
2018-07-30T21:34:07.335Z,9.90
2018-07-30T21:36:35.382Z,9.97
2018-07-30T21:39:03.791Z,14.67
2018-07-30T21:41:31.665Z,10.30
2018-07-30T21:43:59.490Z,9.93
2018-07-30T21:46:27.321Z,11.30
2018-07-30T21:48:55.178Z,10.33
2018-07-30T21:51:23.026Z,9.80
2018-07-30T21:53:50.894Z,9.73
2018-07-30T21:56:18.765Z,10.80
2018-07-30T21:58:46.680Z,9.57
2018-07-30T22:01:14.708Z,8.83
2018-07-30T22:03:42.665Z,10.13
2018-07-30T22:06:10.604Z,9.43
2018-07-30T22:08:38.570Z,10.30
2018-07-30T22:11:06.567Z,8.70
2018-07-30T22:13:34.492Z,11.93
2018-07-30T22:16:02.456Z,12.30
2018-07-30T22:18:30.383Z,10.90
2018-07-30T22:20:58.355Z,11.20
2018-07-30T22:23:26.277Z,11.53
2018-07-30T22:25:54.198Z,12.10
2018-07-30T22:28:22.163Z,12.27
2018-07-30T22:30:50.183Z,12.27
2018-07-30T22:33:18.157Z,12.60
2018-07-30T22:35:46.131Z,12.80
2018-07-30T22:38:14.053Z,12.60
2018-07-30T22:40:41.972Z,12.03
2018-07-30T22:43:10.363Z,12.47
2018-07-30T22:45:38.419Z,12.33
2018-07-30T22:48:06.325Z,12.83
2018-07-30T22:50:34.463Z,14.47
2018-07-30T22:53:02.403Z,11.67
2018-07-30T22:55:30.335Z,10.57
2018-07-30T22:57:58.313Z,12.30
2018-07-30T23:00:26.288Z,9.27
2018-07-30T23:02:54.310Z,12.23
2018-07-30T23:05:22.257Z,12.27
2018-07-30T23:07:50.219Z,9.57
2018-07-30T23:10:18.167Z,10.07
2018-07-30T23:12:46.116Z,10.80
2018-07-30T23:15:14.036Z,11.23
2018-07-30T23:17:41.905Z,10.20
2018-07-30T23:20:09.761Z,10.70
2018-07-30T23:22:37.606Z,9.70
2018-07-30T23:25:05.441Z,12.37
2018-07-30T23:27:33.338Z,12.20
2018-07-30T23:30:01.202Z,11.60
2018-07-30T23:32:29.108Z,10.07
2018-07-30T23:34:57.021Z,10.50
2018-07-30T23:37:25.073Z,10.97
2018-07-30T23:39:52.922Z,9.67
2018-07-30T23:42:20.840Z,12.50
2018-07-30T23:44:48.829Z,11.73
2018-07-30T23:47:16.795Z,11.40
2018-07-30T23:49:44.701Z,11.20
2018-07-30T23:52:12.679Z,10.03
2018-07-30T23:54:40.619Z,11.50
2018-07-30T23:57:08.539Z,11.90
2018-07-30T23:59:36.507Z,10.10
